createdAt,value
2023-04-07T00:00:37.576Z,7.70
2023-04-07T00:01:25.343Z,7.50
2023-04-07T00:02:23.696Z,7.60
2023-04-07T00:03:13.073Z,9.10
2023-04-07T00:04:01.491Z,7.60
2023-04-07T00:04:49.613Z,7.90
2023-04-07T00:06:16.351Z,7.40
2023-04-07T00:07:20.428Z,7.40
2023-04-07T00:08:32.951Z,7.50
2023-04-07T00:09:48.068Z,7.60
2023-04-07T00:10:35.224Z,7.50
2023-04-07T00:11:43.766Z,7.80
2023-04-07T00:12:37.464Z,7.50
2023-04-07T00:13:35.896Z,7.80
2023-04-07T00:14:51.324Z,7.50
2023-04-07T00:15:32.036Z,7.50
2023-04-07T00:17:21.446Z,7.40
2023-04-07T00:18:36.963Z,7.20
2023-04-07T00:19:12.022Z,8.40
2023-04-07T00:20:01.783Z,7.80
2023-04-07T00:20:36.688Z,7.70
2023-04-07T00:21:33.345Z,7.80
2023-04-07T00:22:45.764Z,7.70
2023-04-07T00:23:45.966Z,6.90
2023-04-07T00:25:18.470Z,7.40
2023-04-07T00:26:42.394Z,7.30
2023-04-07T00:27:37.908Z,6.80
2023-04-07T00:29:00.288Z,7.10
2023-04-07T00:30:25.933Z,6.90
2023-04-07T00:31:18.804Z,8.90
2023-04-07T00:32:39.969Z,6.90
2023-04-07T00:34:12.837Z,7.30
2023-04-07T00:35:17.515Z,6.90
2023-04-07T00:36:42.942Z,7.20
2023-04-07T00:37:36.987Z,7.90
2023-04-07T00:38:49.608Z,7.20
2023-04-07T00:39:59.878Z,7.40
2023-04-07T00:40:41.411Z,7.20
2023-04-07T00:41:48.679Z,6.90
2023-04-07T00:42:48.218Z,7.90
2023-04-07T00:43:51.133Z,7.60
2023-04-07T00:44:50.337Z,8.10
2023-04-07T00:45:45.067Z,7.00
2023-04-07T00:46:54.809Z,7.40
2023-04-07T00:48:10.301Z,7.00
2023-04-07T00:48:48.452Z,7.80
2023-04-07T00:49:27.923Z,7.30
2023-04-07T00:50:32.582Z,7.30
2023-04-07T00:51:58.138Z,7.00
2023-04-07T00:53:02.929Z,7.00
2023-04-07T00:54:28.816Z,7.10
2023-04-07T00:55:21.554Z,7.70
2023-04-07T00:56:45.027Z,7.30
2023-04-07T00:57:46.811Z,7.30
2023-04-07T00:58:59.203Z,7.00
2023-04-07T00:59:57.825Z,7.80
2023-04-07T01:01:03.099Z,7.30
2023-04-07T01:02:39.189Z,7.10
2023-04-07T01:03:58.214Z,6.80
2023-04-07T01:05:49.334Z,8.30
2023-04-07T01:07:13.635Z,7.60
2023-04-07T01:08:49.017Z,7.40
2023-04-07T01:10:05.923Z,6.70
2023-04-07T01:11:21.600Z,7.00
2023-04-07T01:12:57.887Z,7.00
2023-04-07T01:14:29.682Z,6.50
2023-04-07T01:15:43.402Z,8.20
2023-04-07T01:16:55.217Z,7.90
2023-04-07T01:19:49.296Z,8.70
2023-04-07T01:20:47.400Z,7.80
2023-04-07T01:21:42.853Z,7.30
2023-04-07T01:23:06.021Z,8.00
2023-04-07T01:24:26.390Z,8.30
2023-04-07T01:25:55.379Z,7.60
2023-04-07T01:26:51.152Z,8.30
2023-04-07T01:28:17.954Z,8.70
2023-04-07T01:29:13.049Z,8.10
2023-04-07T01:29:58.413Z,8.40
2023-04-07T01:31:08.015Z,7.80
2023-04-07T01:32:10.509Z,7.90
2023-04-07T01:33:08.824Z,8.50
2023-04-07T01:34:14.240Z,7.50
2023-04-07T01:35:13.731Z,8.30
2023-04-07T01:36:07.031Z,7.30
2023-04-07T01:37:21.738Z,7.90
2023-04-07T01:38:37.616Z,7.60
2023-04-07T01:39:17.363Z,8.30
2023-04-07T01:40:49.813Z,8.60
2023-04-07T01:42:02.577Z,9.20
2023-04-07T01:43:23.866Z,7.40
2023-04-07T01:44:56.366Z,8.20
2023-04-07T01:46:07.521Z,5.80
2023-04-07T01:47:39.144Z,8.30
2023-04-07T01:48:51.923Z,7.90
2023-04-07T01:49:52.012Z,9.10
2023-04-07T01:51:00.039Z,9.20
2023-04-07T01:52:32.644Z,8.00
2023-04-07T01:53:37.468Z,8.70
2023-04-07T01:55:03.018Z,7.70
2023-04-07T01:56:35.630Z,8.30
2023-04-07T01:57:56.949Z,8.80
2023-04-07T01:59:01.520Z,8.50
2023-04-07T02:00:33.969Z,8.70
2023-04-07T02:01:55.249Z,7.80
2023-04-07T02:03:11.137Z,8.60
2023-04-07T02:04:10.116Z,8.60
2023-04-07T02:05:40.076Z,7.80
2023-04-07T02:06:49.437Z,8.70
2023-04-07T02:08:21.988Z,8.90
2023-04-07T02:09:47.427Z,7.00
2023-04-07T02:11:07.690Z,7.30
2023-04-07T02:12:40.246Z,7.30
2023-04-07T02:13:58.026Z,9.00
2023-04-07T02:15:09.377Z,7.70
2023-04-07T02:16:32.056Z,9.30
2023-04-07T02:17:42.029Z,8.80
2023-04-07T02:19:13.565Z,7.10
2023-04-07T02:20:12.328Z,9.00
2023-04-07T02:21:37.836Z,7.90
2023-04-07T02:23:10.530Z,9.40
2023-04-07T02:24:13.277Z,7.60
2023-04-07T02:25:46.012Z,7.70
2023-04-07T02:27:07.018Z,7.60
2023-04-07T02:28:39.636Z,8.00
2023-04-07T02:29:42.913Z,8.20
2023-04-07T02:30:57.855Z,8.30
2023-04-07T02:32:03.527Z,7.00
2023-04-07T02:33:29.086Z,7.20
2023-04-07T02:35:01.581Z,7.20
2023-04-07T02:36:16.584Z,7.40
2023-04-07T02:37:22.049Z,7.80
2023-04-07T02:38:37.222Z,7.90
2023-04-07T02:40:02.318Z,7.50
2023-04-07T02:41:16.707Z,7.90
2023-04-07T02:42:43.169Z,8.10
2023-04-07T02:43:25.089Z,8.70
2023-04-07T02:44:39.484Z,9.20
2023-04-07T02:46:01.374Z,8.50
2023-04-07T02:47:22.572Z,9.30
2023-04-07T02:48:55.171Z,8.50
2023-04-07T02:50:27.789Z,7.10
2023-04-07T02:51:49.528Z,8.50
2023-04-07T02:53:13.070Z,9.40
2023-04-07T02:54:17.809Z,7.80
2023-04-07T02:55:21.148Z,9.00
2023-04-07T02:56:46.795Z,8.40
2023-04-07T02:58:12.353Z,7.30
2023-04-07T02:59:24.874Z,7.20
2023-04-07T03:00:57.432Z,9.50
2023-04-07T03:02:30.727Z,10.00
2023-04-07T03:03:48.116Z,10.70
2023-04-07T03:05:21.515Z,6.90
2023-04-07T03:06:53.292Z,8.60
2023-04-07T03:08:26.941Z,7.40
2023-04-07T03:09:32.748Z,6.80
2023-04-07T03:10:50.750Z,8.30
2023-04-07T03:12:08.342Z,8.10
2023-04-07T03:13:31.220Z,7.70
2023-04-07T03:14:46.369Z,10.40
2023-04-07T03:16:13.316Z,8.00
2023-04-07T03:17:18.290Z,8.50
2023-04-07T03:18:28.836Z,7.90
2023-04-07T03:20:01.481Z,7.80
2023-04-07T03:21:04.114Z,6.30
2023-04-07T03:22:36.697Z,7.80
2023-04-07T03:23:46.435Z,7.40
2023-04-07T03:24:28.961Z,7.90
2023-04-07T03:26:00.370Z,9.60
2023-04-07T03:26:50.797Z,6.80
2023-04-07T03:27:53.665Z,8.40
2023-04-07T03:29:06.121Z,7.60
2023-04-07T03:30:10.236Z,9.00
2023-04-07T03:31:13.204Z,8.30
2023-04-07T03:32:24.677Z,7.00
2023-04-07T03:33:29.949Z,7.90
2023-04-07T03:34:07.551Z,6.70
2023-04-07T03:35:09.904Z,6.90
2023-04-07T03:36:35.355Z,8.30
2023-04-07T03:37:40.110Z,6.20
2023-04-07T03:38:50.925Z,7.10
2023-04-07T03:39:36.969Z,7.00
2023-04-07T03:40:42.452Z,7.10
2023-04-07T03:41:57.286Z,10.20
2023-04-07T03:43:19.992Z,8.40
2023-04-07T03:45:40.302Z,9.20
2023-04-07T03:46:47.950Z,7.60
2023-04-07T03:48:11.559Z,6.60
2023-04-07T03:49:04.361Z,8.50
2023-04-07T03:50:05.846Z,7.80
2023-04-07T03:50:56.113Z,6.90
2023-04-07T03:52:09.547Z,8.70
2023-04-07T03:53:16.097Z,7.90
2023-04-07T03:54:35.085Z,8.50
2023-04-07T03:56:08.079Z,7.90
2023-04-07T03:57:26.103Z,7.90
2023-04-07T03:58:42.176Z,7.30
2023-04-07T03:59:57.398Z,8.80
2023-04-07T04:00:46.436Z,6.90
2023-04-07T04:01:41.753Z,8.50
2023-04-07T04:03:04.141Z,9.00
2023-04-07T04:04:16.856Z,5.80
2023-04-07T04:05:40.538Z,8.30
2023-04-07T04:06:54.669Z,6.00
2023-04-07T04:07:52.765Z,8.50
2023-04-07T04:08:31.405Z,6.30
2023-04-07T04:09:21.975Z,7.20
2023-04-07T04:10:14.424Z,8.10
2023-04-07T04:11:11.618Z,7.00
2023-04-07T04:12:22.950Z,6.90
2023-04-07T04:13:12.535Z,8.70
2023-04-07T04:14:10.451Z,7.30
2023-04-07T04:15:25.654Z,7.70
2023-04-07T04:16:14.528Z,8.50
2023-04-07T04:17:07.434Z,8.10
2023-04-07T04:18:23.772Z,7.90
2023-04-07T04:19:40.735Z,7.50
2023-04-07T04:20:51.566Z,7.90
2023-04-07T04:22:03.857Z,6.70
2023-04-07T04:22:53.180Z,7.60
2023-04-07T04:24:03.666Z,8.10
2023-04-07T04:25:01.632Z,7.10
2023-04-07T04:26:10.350Z,6.60
2023-04-07T04:27:15.849Z,8.30
2023-04-07T04:27:54.273Z,7.70
2023-04-07T04:28:52.169Z,10.00
2023-04-07T04:29:32.293Z,6.70
2023-04-07T04:30:48.799Z,7.10
2023-04-07T04:31:32.428Z,7.00
2023-04-07T04:32:36.479Z,7.60
2023-04-07T04:33:52.062Z,6.60
2023-04-07T04:34:41.685Z,7.40
2023-04-07T04:35:21.711Z,9.30
2023-04-07T04:36:34.956Z,8.00
2023-04-07T04:37:46.817Z,7.60
2023-04-07T04:38:41.840Z,7.20
2023-04-07T04:39:47.142Z,7.40
2023-04-07T04:41:12.692Z,8.60
2023-04-07T04:42:31.229Z,7.70
2023-04-07T04:43:25.082Z,7.90
2023-04-07T04:44:29.961Z,8.20
2023-04-07T04:45:37.829Z,7.50
2023-04-07T04:46:51.782Z,7.00
2023-04-07T04:48:13.179Z,8.50
2023-04-07T04:49:21.276Z,7.50
2023-04-07T04:50:09.143Z,7.60
2023-04-07T04:50:58.739Z,7.00
2023-04-07T04:51:55.831Z,6.50
2023-04-07T04:53:09.655Z,6.70
2023-04-07T04:53:55.703Z,6.00
2023-04-07T04:54:48.917Z,6.70
2023-04-07T04:55:46.280Z,7.60
2023-04-07T04:56:34.207Z,6.70
2023-04-07T04:57:21.553Z,7.30
2023-04-07T04:57:56.545Z,7.30
2023-04-07T04:58:45.937Z,7.00
2023-04-07T04:59:54.344Z,6.90
2023-04-07T05:00:57.928Z,8.00
2023-04-07T05:01:56.668Z,7.50
2023-04-07T05:02:55.258Z,6.90
2023-04-07T05:03:49.137Z,7.60
2023-04-07T05:04:49.891Z,7.80
2023-04-07T05:06:22.399Z,8.10
2023-04-07T05:07:21.081Z,6.40
2023-04-07T05:08:35.461Z,7.70
2023-04-07T05:10:07.987Z,7.80
2023-04-07T05:11:14.778Z,7.00
2023-04-07T05:12:36.234Z,6.20
2023-04-07T05:13:48.936Z,6.00
2023-04-07T05:15:06.790Z,7.30
2023-04-07T05:16:20.871Z,8.10
2023-04-07T05:17:06.024Z,6.70
2023-04-07T05:18:38.501Z,7.40
2023-04-07T05:19:59.678Z,6.70
2023-04-07T05:21:08.902Z,7.00
2023-04-07T05:22:17.422Z,7.90
2023-04-07T05:23:41.310Z,7.80
2023-04-07T05:24:54.730Z,7.40
2023-04-07T05:26:27.331Z,8.80
2023-04-07T05:27:45.242Z,7.00
2023-04-07T05:28:27.603Z,8.10
2023-04-07T05:29:22.857Z,10.40
2023-04-07T05:30:28.662Z,8.80
2023-04-07T05:32:01.449Z,8.40
2023-04-07T05:33:16.921Z,8.30
2023-04-07T05:34:26.481Z,10.10
2023-04-07T05:35:58.928Z,12.30
2023-04-07T05:37:11.438Z,12.50
2023-04-07T05:38:36.622Z,10.50
2023-04-07T05:39:59.192Z,11.60
2023-04-07T05:42:29.232Z,9.20
2023-04-07T05:43:45.932Z,7.60
2023-04-07T05:44:39.146Z,9.10
2023-04-07T05:46:02.068Z,9.50
2023-04-07T05:47:52.079Z,9.50
2023-04-07T05:49:19.621Z,8.40
2023-04-07T05:50:11.846Z,6.90
2023-04-07T05:51:26.764Z,9.00
2023-04-07T05:52:28.268Z,7.10
2023-04-07T05:53:29.173Z,7.60
2023-04-07T05:54:50.349Z,5.70
2023-04-07T05:56:22.880Z,6.10
2023-04-07T05:57:42.240Z,6.10
2023-04-07T05:59:13.423Z,7.80
2023-04-07T06:00:34.802Z,7.90
2023-04-07T06:01:56.073Z,8.50
2023-04-07T06:03:14.072Z,8.20
2023-04-07T06:04:46.607Z,7.10
2023-04-07T06:05:44.049Z,6.50
2023-04-07T06:06:58.001Z,6.80
2023-04-07T06:08:23.083Z,7.40
2023-04-07T06:09:50.762Z,8.90
2023-04-07T06:11:05.316Z,8.60
2023-04-07T06:12:38.013Z,10.20
2023-04-07T06:13:44.544Z,12.70
2023-04-07T06:15:17.161Z,14.20
2023-04-07T06:16:12.215Z,10.30
2023-04-07T06:17:35.158Z,11.20
2023-04-07T06:18:45.562Z,10.70
2023-04-07T06:20:00.974Z,9.90
2023-04-07T06:21:08.346Z,12.20
2023-04-07T06:22:32.332Z,19.40
2023-04-07T06:23:56.052Z,24.90
2023-04-07T06:25:21.564Z,24.40
2023-04-07T06:26:36.776Z,27.60
2023-04-07T06:27:36.798Z,27.30
2023-04-07T06:28:40.998Z,27.10
2023-04-07T06:29:47.435Z,26.30
2023-04-07T06:31:00.060Z,23.00
2023-04-07T06:32:23.978Z,16.30
2023-04-07T06:33:55.205Z,12.50
2023-04-07T06:35:10.874Z,15.00
2023-04-07T06:36:38.231Z,13.80
2023-04-07T06:37:46.287Z,13.80
2023-04-07T06:38:55.094Z,11.80
2023-04-07T06:40:01.755Z,11.40
2023-04-07T06:41:18.436Z,12.20
2023-04-07T06:42:42.270Z,14.40
2023-04-07T06:44:14.815Z,18.20
2023-04-07T06:45:28.501Z,15.50
2023-04-07T06:47:01.093Z,15.40
2023-04-07T06:48:32.438Z,20.90
2023-04-07T06:50:05.107Z,19.20
2023-04-07T06:51:20.685Z,12.60
2023-04-07T06:52:45.976Z,13.20
2023-04-07T06:54:16.446Z,12.50
2023-04-07T06:55:34.124Z,11.30
2023-04-07T06:56:50.582Z,11.50
2023-04-07T06:57:56.056Z,14.40
2023-04-07T06:59:18.774Z,13.90
2023-04-07T07:00:30.551Z,14.00
2023-04-07T07:01:39.501Z,15.60
2023-04-07T07:03:12.305Z,16.00
2023-04-07T07:04:44.935Z,26.10
2023-04-07T07:05:55.974Z,26.00
2023-04-07T07:07:28.709Z,33.70
2023-04-07T07:09:01.457Z,37.20
2023-04-07T07:10:26.668Z,36.90
2023-04-07T07:11:40.948Z,38.50
2023-04-07T07:12:56.314Z,30.00
2023-04-07T07:14:03.755Z,30.90
2023-04-07T07:15:26.631Z,28.00
2023-04-07T07:16:29.190Z,18.50
2023-04-07T07:17:06.938Z,15.40
2023-04-07T07:18:12.890Z,14.80
2023-04-07T07:19:16.377Z,14.00
2023-04-07T07:20:25.591Z,12.00
2023-04-07T07:21:20.794Z,11.50
2023-04-07T07:22:32.683Z,10.10
2023-04-07T07:23:13.817Z,10.10
2023-04-07T07:24:19.530Z,9.40
2023-04-07T07:25:36.238Z,14.50
2023-04-07T07:26:43.478Z,12.70
2023-04-07T07:27:56.020Z,9.80
2023-04-07T07:29:28.483Z,10.10
2023-04-07T07:31:01.174Z,8.70
2023-04-07T07:32:12.526Z,17.00
2023-04-07T07:33:44.224Z,12.30
2023-04-07T07:34:51.483Z,13.70
2023-04-07T07:35:58.847Z,17.30
2023-04-07T07:37:31.482Z,21.40
2023-04-07T07:38:44.258Z,16.90
2023-04-07T07:40:04.856Z,16.60
2023-04-07T07:41:30.475Z,14.90
2023-04-07T07:42:56.052Z,16.40
2023-04-07T07:44:23.209Z,14.90
2023-04-07T07:45:20.468Z,14.60
2023-04-07T07:46:55.472Z,13.70
2023-04-07T07:48:10.840Z,18.30
2023-04-07T07:49:05.969Z,17.20
2023-04-07T07:50:31.327Z,15.10
2023-04-07T07:51:23.863Z,16.70
2023-04-07T07:52:56.380Z,11.30
2023-04-07T07:54:00.992Z,10.10
2023-04-07T07:55:23.577Z,14.70
2023-04-07T07:56:36.122Z,16.00
2023-04-07T07:57:32.288Z,31.70
2023-04-07T07:58:50.364Z,28.10
2023-04-07T07:59:37.551Z,15.30
2023-04-07T08:00:45.984Z,10.70
2023-04-07T08:02:02.041Z,9.80
2023-04-07T08:03:24.769Z,10.90
2023-04-07T08:04:53.695Z,9.30
2023-04-07T08:05:48.868Z,11.80
2023-04-07T08:06:51.987Z,10.50
2023-04-07T08:07:49.096Z,10.30
2023-04-07T08:08:55.649Z,11.20
2023-04-07T08:10:21.074Z,8.80
2023-04-07T08:11:32.694Z,10.40
2023-04-07T08:12:39.628Z,12.10
2023-04-07T08:13:45.278Z,11.70
2023-04-07T08:14:38.720Z,12.30
2023-04-07T08:16:00.306Z,12.10
2023-04-07T08:17:06.257Z,13.80
2023-04-07T08:17:59.590Z,13.70
2023-04-07T08:19:15.072Z,14.60
2023-04-07T08:20:30.658Z,13.50
2023-04-07T08:22:03.194Z,14.30
2023-04-07T08:22:56.400Z,15.60
2023-04-07T08:24:08.899Z,11.60
2023-04-07T08:25:30.236Z,13.10
2023-04-07T08:26:32.832Z,14.10
2023-04-07T08:27:55.202Z,12.20
2023-04-07T08:29:12.712Z,8.70
2023-04-07T08:30:39.141Z,9.50
2023-04-07T08:31:27.551Z,13.80
2023-04-07T08:33:00.136Z,15.10
2023-04-07T08:34:20.185Z,14.90
2023-04-07T08:35:28.881Z,18.20
2023-04-07T08:36:52.748Z,20.10
2023-04-07T08:38:02.578Z,25.30
2023-04-07T08:39:25.303Z,15.80
2023-04-07T08:40:40.658Z,16.90
2023-04-07T08:41:30.356Z,15.00
2023-04-07T08:43:02.865Z,16.60
2023-04-07T08:44:35.662Z,20.80
2023-04-07T08:46:08.337Z,31.90
2023-04-07T08:47:21.248Z,32.30
2023-04-07T08:48:26.772Z,34.10
2023-04-07T08:49:41.062Z,27.40
2023-04-07T08:50:52.474Z,19.60
2023-04-07T08:52:10.506Z,14.20
2023-04-07T08:53:19.571Z,12.30
2023-04-07T08:54:33.454Z,11.60
2023-04-07T08:55:55.729Z,8.60
2023-04-07T08:57:11.480Z,7.90
2023-04-07T08:58:16.815Z,10.90
2023-04-07T08:59:28.080Z,10.10
2023-04-07T09:00:52.719Z,8.60
2023-04-07T09:02:19.576Z,7.30
2023-04-07T09:03:47.522Z,8.90
2023-04-07T09:04:55.462Z,7.90
2023-04-07T09:06:02.120Z,13.10
2023-04-07T09:07:23.501Z,32.10
2023-04-07T09:08:56.031Z,32.90
2023-04-07T09:10:14.122Z,17.60
2023-04-07T09:11:38.646Z,13.80
2023-04-07T09:12:54.130Z,11.10
2023-04-07T09:14:08.856Z,10.10
2023-04-07T09:15:09.936Z,10.70
2023-04-07T09:16:13.592Z,10.20
2023-04-07T09:17:15.455Z,13.10
2023-04-07T09:18:22.528Z,12.80
2023-04-07T09:19:55.023Z,11.70
2023-04-07T09:21:35.691Z,12.20
2023-04-07T09:23:07.394Z,15.80
2023-04-07T09:24:39.941Z,13.50
2023-04-07T09:26:15.470Z,13.30
2023-04-07T09:27:50.829Z,11.00
2023-04-07T09:29:23.509Z,11.20
2023-04-07T09:30:57.196Z,13.20
2023-04-07T09:32:38.075Z,13.50
2023-04-07T09:34:03.237Z,13.10
2023-04-07T09:35:35.434Z,14.90
2023-04-07T09:37:09.117Z,13.60
2023-04-07T09:38:11.121Z,12.50
2023-04-07T09:39:44.653Z,15.30
2023-04-07T09:41:16.493Z,11.90
2023-04-07T09:42:57.923Z,10.30
2023-04-07T09:44:31.284Z,10.70
2023-04-07T09:47:03.693Z,9.10
2023-04-07T09:48:36.182Z,11.10
2023-04-07T09:49:56.569Z,11.10
2023-04-07T09:51:32.461Z,13.90
2023-04-07T09:53:08.525Z,19.50
2023-04-07T09:54:34.179Z,16.70
2023-04-07T09:56:08.233Z,14.40
2023-04-07T09:57:42.373Z,12.80
2023-04-07T09:59:08.956Z,14.00
2023-04-07T10:03:08.614Z,17.30
2023-04-07T10:08:33.317Z,13.90
2023-04-07T10:11:16.378Z,16.20
2023-04-07T10:12:22.440Z,20.40
2023-04-07T10:13:55.015Z,17.20
2023-04-07T10:15:27.685Z,20.30
2023-04-07T10:17:00.481Z,16.50
2023-04-07T10:18:25.816Z,18.30
2023-04-07T10:19:58.392Z,19.00
2023-04-07T10:21:21.470Z,21.70
2023-04-07T10:22:21.791Z,31.30
2023-04-07T10:23:57.096Z,28.30
2023-04-07T10:25:02.751Z,41.20
2023-04-07T10:26:33.940Z,27.70
2023-04-07T10:27:51.291Z,21.30
2023-04-07T10:29:09.583Z,13.60
2023-04-07T10:30:42.508Z,11.90
2023-04-07T10:32:14.336Z,12.70
2023-04-07T10:33:47.655Z,18.80
2023-04-07T10:35:33.113Z,25.10
2023-04-07T10:37:08.565Z,30.30
2023-04-07T10:38:50.250Z,20.80
2023-04-07T10:40:11.700Z,22.60
2023-04-07T10:41:33.719Z,23.60
2023-04-07T10:43:18.685Z,15.40
2023-04-07T10:44:23.631Z,15.40
2023-04-07T10:45:56.301Z,17.80
2023-04-07T10:47:25.093Z,23.30
2023-04-07T10:49:03.744Z,22.80
2023-04-07T10:50:39.443Z,21.90
2023-04-07T10:52:11.943Z,25.40
2023-04-07T10:53:16.584Z,49.00
2023-04-07T10:54:56.550Z,53.70
2023-04-07T10:56:35.250Z,20.50
2023-04-07T10:58:07.904Z,34.60
2023-04-07T10:59:24.246Z,14.20
2023-04-07T11:00:51.920Z,11.30
2023-04-07T11:02:24.585Z,11.80
2023-04-07T11:03:57.492Z,7.80
2023-04-07T11:05:32.391Z,11.90
2023-04-07T11:07:05.139Z,20.30
2023-04-07T11:08:44.206Z,18.80
2023-04-07T11:10:08.741Z,26.50
2023-04-07T11:11:30.245Z,23.30
2023-04-07T11:13:02.848Z,21.50
2023-04-07T11:14:42.145Z,26.70
2023-04-07T11:16:17.857Z,17.70
2023-04-07T11:17:51.536Z,11.80
2023-04-07T11:19:17.260Z,10.30
2023-04-07T11:20:52.995Z,9.60
2023-04-07T11:22:05.981Z,7.20
2023-04-07T11:23:31.778Z,7.50
2023-04-07T11:25:13.413Z,8.40
2023-04-07T11:26:26.932Z,20.60
2023-04-07T11:27:35.408Z,18.70
2023-04-07T11:29:08.104Z,14.50
2023-04-07T11:30:39.864Z,29.00
2023-04-07T11:32:25.677Z,17.50
2023-04-07T11:33:58.790Z,14.30
2023-04-07T11:35:24.226Z,11.90
2023-04-07T11:36:55.948Z,22.30
2023-04-07T11:38:19.025Z,17.90
2023-04-07T11:39:53.662Z,10.50
2023-04-07T11:41:32.320Z,8.50
2023-04-07T11:43:19.116Z,8.60
2023-04-07T11:44:51.699Z,6.00
2023-04-07T11:46:22.985Z,7.40
2023-04-07T11:47:32.995Z,7.10
2023-04-07T11:49:12.628Z,8.00
2023-04-07T11:55:00.925Z,52.80
2023-04-07T11:56:25.948Z,40.90
2023-04-07T11:58:07.477Z,38.70
2023-04-07T11:59:30.619Z,13.70
2023-04-07T12:00:44.872Z,14.50
2023-04-07T12:02:00.621Z,9.70
2023-04-07T12:03:36.629Z,10.80
2023-04-07T12:05:09.123Z,7.90
2023-04-07T12:06:44.847Z,7.50
2023-04-07T12:08:00.752Z,5.70
2023-04-07T12:09:38.536Z,10.70
2023-04-07T12:11:04.048Z,8.90
2023-04-07T12:12:18.726Z,9.50
2023-04-07T12:13:29.584Z,8.60
2023-04-07T12:14:35.770Z,6.60
2023-04-07T12:15:41.508Z,5.40
2023-04-07T12:16:56.587Z,4.90
2023-04-07T12:18:02.409Z,5.80
2023-04-07T12:19:24.214Z,6.60
2023-04-07T12:20:49.661Z,7.30
2023-04-07T12:22:03.179Z,11.00
2023-04-07T12:23:21.211Z,7.80
2023-04-07T12:24:13.515Z,5.20
2023-04-07T12:25:46.243Z,5.70
2023-04-07T12:27:09.820Z,5.20
2023-04-07T12:28:25.317Z,5.90
2023-04-07T12:29:32.016Z,5.10
2023-04-07T12:30:54.614Z,6.20
2023-04-07T12:32:41.545Z,7.30
2023-04-07T12:33:56.861Z,10.20
2023-04-07T12:35:14.565Z,13.40
2023-04-07T12:36:35.944Z,12.60
2023-04-07T12:37:38.688Z,17.80
2023-04-07T12:38:59.864Z,12.80
2023-04-07T12:40:25.715Z,14.50
2023-04-07T12:41:58.324Z,25.60
2023-04-07T12:42:50.547Z,21.50
2023-04-07T12:44:06.015Z,18.10
2023-04-07T12:45:38.528Z,17.20
2023-04-07T12:46:50.396Z,10.70
2023-04-07T12:48:13.906Z,8.40
2023-04-07T12:49:34.919Z,8.70
2023-04-07T12:51:07.516Z,7.20
2023-04-07T12:52:40.645Z,6.30
2023-04-07T12:53:49.244Z,17.30
2023-04-07T12:55:10.888Z,17.90
2023-04-07T12:56:36.117Z,14.70
2023-04-07T12:57:52.502Z,11.10
2023-04-07T12:59:03.585Z,11.60
2023-04-07T13:00:12.158Z,11.10
2023-04-07T13:01:24.700Z,12.10
2023-04-07T13:02:50.301Z,12.60
2023-04-07T13:04:12.106Z,8.40
2023-04-07T13:05:30.395Z,7.80
2023-04-07T13:07:03.378Z,9.10
2023-04-07T13:08:06.612Z,10.20
2023-04-07T13:09:29.743Z,12.40
2023-04-07T13:10:42.868Z,13.00
2023-04-07T13:12:06.277Z,13.20
2023-04-07T13:13:29.165Z,15.20
2023-04-07T13:14:52.890Z,16.60
2023-04-07T13:16:32.141Z,16.60
2023-04-07T13:18:04.793Z,20.10
2023-04-07T13:19:38.477Z,13.10
2023-04-07T13:20:33.916Z,11.50
2023-04-07T13:21:59.284Z,12.20
2023-04-07T13:23:07.500Z,12.90
2023-04-07T13:24:13.535Z,11.90
2023-04-07T13:25:46.247Z,14.70
2023-04-07T13:27:18.773Z,11.40
2023-04-07T13:28:31.141Z,8.80
2023-04-07T13:29:43.558Z,11.00
2023-04-07T13:30:58.813Z,13.20
2023-04-07T13:32:31.091Z,12.20
2023-04-07T13:33:37.292Z,7.90
2023-04-07T13:35:10.191Z,7.30
2023-04-07T13:36:23.433Z,7.70
2023-04-07T13:37:50.132Z,7.60
2023-04-07T13:39:07.869Z,10.80
2023-04-07T13:40:40.574Z,9.50
2023-04-07T13:42:13.449Z,8.60
2023-04-07T13:43:46.782Z,9.30
2023-04-07T13:46:28.470Z,10.00
2023-04-07T13:47:52.065Z,9.30
2023-04-07T13:48:41.437Z,9.60
2023-04-07T13:50:14.360Z,8.00
2023-04-07T13:51:40.007Z,7.60
2023-04-07T13:53:00.262Z,8.40
2023-04-07T13:54:15.917Z,8.10
2023-04-07T13:55:48.845Z,8.90
2023-04-07T13:57:21.419Z,10.60
2023-04-07T14:00:03.649Z,9.10
2023-04-07T14:01:29.699Z,12.50
2023-04-07T14:02:50.991Z,10.50
2023-04-07T14:04:23.734Z,8.80
2023-04-07T14:05:46.719Z,9.80
2023-04-07T14:07:11.868Z,10.80
2023-04-07T14:08:44.557Z,13.00
2023-04-07T14:10:17.087Z,14.90
2023-04-07T14:11:36.666Z,12.20
2023-04-07T14:13:09.161Z,14.80
2023-04-07T14:14:27.212Z,13.00
2023-04-07T14:15:59.749Z,11.90
2023-04-07T14:17:32.585Z,11.80
2023-04-07T14:20:18.010Z,19.20
2023-04-07T14:21:33.131Z,13.50
2023-04-07T14:23:05.938Z,13.70
2023-04-07T14:24:40.000Z,11.60
2023-04-07T14:26:05.505Z,64.70
2023-04-07T14:27:39.279Z,44.20
2023-04-07T14:29:12.040Z,40.50
2023-04-07T14:30:45.021Z,24.70
2023-04-07T14:32:18.822Z,17.20
2023-04-07T14:33:44.296Z,4.20
2023-04-07T14:35:09.640Z,14.50
2023-04-07T14:36:34.784Z,15.70
2023-04-07T14:38:07.504Z,19.80
2023-04-07T14:39:37.191Z,22.30
2023-04-07T14:40:52.458Z,20.70
2023-04-07T14:42:18.415Z,21.00
2023-04-07T14:43:44.457Z,22.80
2023-04-07T14:45:17.174Z,17.60
2023-04-07T14:46:49.892Z,16.70
2023-04-07T14:48:15.531Z,16.10
2023-04-07T14:49:51.842Z,15.00
2023-04-07T14:51:25.929Z,14.80
2023-04-07T14:52:44.489Z,23.40
2023-04-07T14:53:49.513Z,25.90
2023-04-07T14:55:15.985Z,20.70
2023-04-07T14:56:38.888Z,15.40
2023-04-07T14:59:04.754Z,16.00
2023-04-07T15:00:28.417Z,18.20
2023-04-07T15:02:02.178Z,14.90
2023-04-07T15:03:36.187Z,14.50
2023-04-07T15:06:20.968Z,12.10
2023-04-07T15:07:42.281Z,11.90
2023-04-07T15:09:07.830Z,11.30
2023-04-07T15:10:33.452Z,11.00
2023-04-07T15:11:46.939Z,11.30
2023-04-07T15:13:12.590Z,11.20
2023-04-07T15:14:28.925Z,11.20
2023-04-07T15:16:01.587Z,84.30
2023-04-07T15:17:43.171Z,48.40
2023-04-07T15:18:57.343Z,14.40
2023-04-07T15:20:29.203Z,14.60
2023-04-07T15:21:47.438Z,70.60
2023-04-07T15:23:16.158Z,94.20
2023-04-07T15:24:39.882Z,49.00
2023-04-07T15:26:05.871Z,18.20
2023-04-07T15:27:38.562Z,15.20
2023-04-07T15:28:51.242Z,11.10
2023-04-07T15:30:23.786Z,13.30
2023-04-07T15:31:56.505Z,16.60
2023-04-07T15:33:38.161Z,16.00
2023-04-07T15:34:53.348Z,15.20
2023-04-07T15:35:39.850Z,14.70
2023-04-07T15:36:51.187Z,19.10
2023-04-07T15:38:04.277Z,11.80
2023-04-07T15:39:36.910Z,13.00
2023-04-07T15:40:42.125Z,15.50
2023-04-07T15:42:09.281Z,14.30
2023-04-07T15:43:14.217Z,15.50
2023-04-07T15:44:36.952Z,15.10
2023-04-07T15:45:23.718Z,16.00
2023-04-07T15:46:32.251Z,15.80
2023-04-07T15:47:54.000Z,16.20
2023-04-07T15:49:23.721Z,18.50
2023-04-07T15:50:38.417Z,19.40
2023-04-07T15:51:20.072Z,23.20
2023-04-07T15:52:37.964Z,24.50
2023-04-07T15:53:44.858Z,19.30
2023-04-07T15:54:51.076Z,16.30
2023-04-07T15:55:43.939Z,13.50
2023-04-07T15:56:59.302Z,13.40
2023-04-07T15:58:20.936Z,14.50
2023-04-07T15:59:22.321Z,15.90
2023-04-07T16:00:39.652Z,12.60
2023-04-07T16:01:55.172Z,14.10
2023-04-07T16:02:44.485Z,14.70
2023-04-07T16:03:44.524Z,16.50
2023-04-07T16:05:16.009Z,18.20
2023-04-07T16:06:24.523Z,18.20
2023-04-07T16:07:44.369Z,16.60
2023-04-07T16:08:55.830Z,16.00
2023-04-07T16:10:11.109Z,18.90
2023-04-07T16:11:33.706Z,18.60
2023-04-07T16:13:26.440Z,16.80
2023-04-07T16:14:38.872Z,16.40
2023-04-07T16:15:45.444Z,14.30
2023-04-07T16:16:54.265Z,13.40
2023-04-07T16:18:17.038Z,17.20
2023-04-07T16:20:50.589Z,15.70
2023-04-07T16:21:32.072Z,15.90
2023-04-07T16:22:49.936Z,16.80
2023-04-07T16:24:15.086Z,14.70
2023-04-07T16:25:47.785Z,13.70
2023-04-07T16:27:19.052Z,11.80
2023-04-07T16:28:23.298Z,17.50
2023-04-07T16:29:55.998Z,13.90
2023-04-07T16:31:11.031Z,16.40
2023-04-07T16:32:43.722Z,14.10
2023-04-07T16:33:54.321Z,14.40
2023-04-07T16:35:09.631Z,14.40
2023-04-07T16:36:36.256Z,13.20
2023-04-07T16:37:58.765Z,13.50
2023-04-07T16:39:18.169Z,16.80
2023-04-07T16:40:31.958Z,14.70
2023-04-07T16:41:36.559Z,14.00
2023-04-07T16:42:30.213Z,13.50
2023-04-07T16:44:02.760Z,14.20
2023-04-07T16:45:20.112Z,14.60
2023-04-07T16:46:52.863Z,16.40
2023-04-07T16:48:15.695Z,14.70
2023-04-07T16:49:48.391Z,18.20
2023-04-07T16:51:06.419Z,24.20
2023-04-07T16:52:38.952Z,21.90
2023-04-07T16:54:11.467Z,15.40
2023-04-07T16:55:16.197Z,16.30
2023-04-07T16:56:27.982Z,19.10
2023-04-07T16:57:43.413Z,21.00
2023-04-07T16:59:04.048Z,16.30
2023-04-07T16:59:46.779Z,14.50
2023-04-07T17:00:59.252Z,15.30
2023-04-07T17:02:32.159Z,15.20
2023-04-07T17:04:04.922Z,12.40
2023-04-07T17:06:20.103Z,11.30
2023-04-07T17:07:52.698Z,9.90
2023-04-07T17:08:54.013Z,11.50